PILOTS ONLINE: 318    ATC ONLINE: 35

KVBG

Vandenberg Air Force Base

Location

City Lompoc
Country  United States
Latitude 34° 44' 14" N
Longitude 120° 35' 2" W
Elevation 369 ft
Type Large Airport

Map

Weather

METAR
2014/10/20 12:55
KVBG 201255Z AUTO 02005KT 10SM OVC012 17/14 A2994 RMK AO2 SLP130 T01670144 TSNO $ 
TAF
2014/10/18 03:57
TAF TAF 
      AMD KVBG 1803/1904 35009KT 9999 FEW020 SCT150 BKN250 QNH2999INS 
      BECMG 1808/1809 VRB06KT 3200 BR BKN005 OVC010 QNH3000INS 
      BECMG 1812/1813 VRB06KT 2400 -DZ BR OVC003 QNH3001INS 
      BECMG 1815/1816 32006KT 4800 -DZ BR OVC005 QNH2999INS 
      BECMG 1816/1817 32009KT 9999 NSW OVC010 QNH2998INS 
      BECMG 1820/1821 33012KT 9999 FEW020 QNH2997INS 
      BECMG 1901/1902 32006KT 6000 BR SCT005 BKN010 QNH3000INS TX17/1803Z TN13/1813Z 
      AMD 180347 LAST NO 
      AMDS AFT 1803 NEXT 2014

Runways

12/30 15000 ft / 200 ft

Outbound flights

Callsign Flying to Pilot ATD/STD ETA Aircraft

Inbound flights

Callsign Flying from Pilot ATD ETA Aircraft